sensor_id;sensor_type;location;lat;lon;timestamp;temperature;humidity
40638;DHT22;26336;44.696;10.622;2022-09-06T00:01:51;23.80;99.90
40638;DHT22;26336;44.696;10.622;2022-09-06T00:04:55;23.80;99.90
40638;DHT22;26336;44.696;10.622;2022-09-06T00:08:03;23.80;99.90
40638;DHT22;26336;44.696;10.622;2022-09-06T00:11:08;23.90;99.90
40638;DHT22;26336;44.696;10.622;2022-09-06T00:14:12;23.90;99.90
40638;DHT22;26336;44.696;10.622;2022-09-06T00:17:16;23.80;99.90
40638;DHT22;26336;44.696;10.622;2022-09-06T00:20:20;23.80;99.90
40638;DHT22;26336;44.696;10.622;2022-09-06T00:23:27;23.70;99.90
40638;DHT22;26336;44.696;10.622;2022-09-06T00:26:31;23.70;99.90
40638;DHT22;26336;44.696;10.622;2022-09-06T00:29:35;23.70;99.90
40638;DHT22;26336;44.696;10.622;2022-09-06T00:32:39;23.60;99.90
40638;DHT22;26336;44.696;10.622;2022-09-06T00:35:44;23.50;99.90
40638;DHT22;26336;44.696;10.622;2022-09-06T00:38:51;23.40;99.90
40638;DHT22;26336;44.696;10.622;2022-09-06T00:41:55;23.40;99.90
40638;DHT22;26336;44.696;10.622;2022-09-06T00:44:59;23.40;99.90
40638;DHT22;26336;44.696;10.622;2022-09-06T00:48:04;23.50;99.90
40638;DHT22;26336;44.696;10.622;2022-09-06T00:51:10;23.50;99.90
40638;DHT22;26336;44.696;10.622;2022-09-06T00:54:15;23.50;99.90
40638;DHT22;26336;44.696;10.622;2022-09-06T00:57:19;23.50;99.90
40638;DHT22;26336;44.696;10.622;2022-09-06T01:00:23;23.50;99.90
40638;DHT22;26336;44.696;10.622;2022-09-06T01:03:26;23.50;99.90
40638;DHT22;26336;44.696;10.622;2022-09-06T01:06:38;23.50;99.90
40638;DHT22;26336;44.696;10.622;2022-09-06T01:16:39;23.40;99.90
40638;DHT22;26336;44.696;10.622;2022-09-06T01:20:35;23.40;99.90
40638;DHT22;26336;44.696;10.622;2022-09-06T01:23:50;23.30;99.90
40638;DHT22;26336;44.696;10.622;2022-09-06T01:30:23;23.30;99.90
40638;DHT22;26336;44.696;10.622;2022-09-06T01:33:37;23.30;99.90
40638;DHT22;26336;44.696;10.622;2022-09-06T01:37:00;23.30;99.90
40638;DHT22;26336;44.696;10.622;2022-09-06T01:40:06;23.20;99.90
40638;DHT22;26336;44.696;10.622;2022-09-06T01:43:13;23.20;99.90
40638;DHT22;26336;44.696;10.622;2022-09-06T01:46:35;23.20;99.90
40638;DHT22;26336;44.696;10.622;2022-09-06T01:49:50;23.20;99.90
40638;DHT22;26336;44.696;10.622;2022-09-06T02:00:10;23.20;99.90
40638;DHT22;26336;44.696;10.622;2022-09-06T02:03:34;23.20;99.90
40638;DHT22;26336;44.696;10.622;2022-09-06T02:06:48;23.10;99.90
40638;DHT22;26336;44.696;10.622;2022-09-06T02:09:55;23.10;99.90
40638;DHT22;26336;44.696;10.622;2022-09-06T02:13:05;22.90;99.90
40638;DHT22;26336;44.696;10.622;2022-09-06T02:16:10;22.90;99.90
40638;DHT22;26336;44.696;10.622;2022-09-06T02:22:30;22.90;99.90
40638;DHT22;26336;44.696;10.622;2022-09-06T02:25:44;22.90;99.90
40638;DHT22;26336;44.696;10.622;2022-09-06T02:28:49;22.90;99.90
40638;DHT22;26336;44.696;10.622;2022-09-06T02:32:04;23.00;99.90
40638;DHT22;26336;44.696;10.622;2022-09-06T02:35:13;23.00;99.90
40638;DHT22;26336;44.696;10.622;2022-09-06T02:38:20;22.90;99.90
40638;DHT22;26336;44.696;10.622;2022-09-06T02:41:27;22.90;99.90
40638;DHT22;26336;44.696;10.622;2022-09-06T02:44:31;22.80;99.90
40638;DHT22;26336;44.696;10.622;2022-09-06T02:47:35;22.70;99.90
40638;DHT22;26336;44.696;10.622;2022-09-06T02:50:39;22.70;99.90
40638;DHT22;26336;44.696;10.622;2022-09-06T02:53:43;22.80;99.90
40638;DHT22;26336;44.696;10.622;2022-09-06T02:56:47;22.80;99.90
40638;DHT22;26336;44.696;10.622;2022-09-06T02:59:51;22.80;99.90
40638;DHT22;26336;44.696;10.622;2022-09-06T03:02:55;22.80;99.90
40638;DHT22;26336;44.696;10.622;2022-09-06T03:05:59;22.80;99.90
40638;DHT22;26336;44.696;10.622;2022-09-06T03:09:03;22.80;99.90
40638;DHT22;26336;44.696;10.622;2022-09-06T03:12:08;22.80;99.90
40638;DHT22;26336;44.696;10.622;2022-09-06T03:15:13;22.80;99.90
40638;DHT22;26336;44.696;10.622;2022-09-06T03:18:17;22.80;99.90
40638;DHT22;26336;44.696;10.622;2022-09-06T03:21:21;22.80;99.90
40638;DHT22;26336;44.696;10.622;2022-09-06T03:24:25;22.80;99.90
40638;DHT22;26336;44.696;10.622;2022-09-06T03:27:28;22.80;99.90
40638;DHT22;26336;44.696;10.622;2022-09-06T03:30:35;22.80;99.90
40638;DHT22;26336;44.696;10.622;2022-09-06T03:33:39;22.80;99.90
40638;DHT22;26336;44.696;10.622;2022-09-06T03:36:43;22.70;99.90
40638;DHT22;26336;44.696;10.622;2022-09-06T03:39:47;22.80;99.90
40638;DHT22;26336;44.696;10.622;2022-09-06T03:42:51;22.70;99.90
40638;DHT22;26336;44.696;10.622;2022-09-06T03:45:56;22.70;99.90
40638;DHT22;26336;44.696;10.622;2022-09-06T03:49:00;22.70;99.90
40638;DHT22;26336;44.696;10.622;2022-09-06T03:52:04;22.60;99.90
40638;DHT22;26336;44.696;10.622;2022-09-06T03:55:09;22.50;99.90
40638;DHT22;26336;44.696;10.622;2022-09-06T03:58:16;22.50;99.90
40638;DHT22;26336;44.696;10.622;2022-09-06T04:01:21;22.50;99.90
40638;DHT22;26336;44.696;10.622;2022-09-06T04:04:24;22.50;99.90
40638;DHT22;26336;44.696;10.622;2022-09-06T04:07:28;22.50;99.90
40638;DHT22;26336;44.696;10.622;2022-09-06T04:10:32;22.50;99.90
40638;DHT22;26336;44.696;10.622;2022-09-06T04:13:37;22.50;99.90
40638;DHT22;26336;44.696;10.622;2022-09-06T04:16:42;22.50;99.90
40638;DHT22;26336;44.696;10.622;2022-09-06T04:19:45;22.50;99.90
40638;DHT22;26336;44.696;10.622;2022-09-06T04:22:49;22.50;99.90
40638;DHT22;26336;44.696;10.622;2022-09-06T04:25:55;22.50;99.90
40638;DHT22;26336;44.696;10.622;2022-09-06T04:29:00;22.50;99.90
40638;DHT22;26336;44.696;10.622;2022-09-06T04:32:04;22.50;99.90
40638;DHT22;26336;44.696;10.622;2022-09-06T04:35:08;22.40;99.90
40638;DHT22;26336;44.696;10.622;2022-09-06T04:38:12;22.40;99.90
40638;DHT22;26336;44.696;10.622;2022-09-06T04:41:16;22.40;99.90
40638;DHT22;26336;44.696;10.622;2022-09-06T04:44:23;22.40;99.90
40638;DHT22;26336;44.696;10.622;2022-09-06T04:47:27;22.30;99.90
40638;DHT22;26336;44.696;10.622;2022-09-06T04:50:31;22.30;99.90
40638;DHT22;26336;44.696;10.622;2022-09-06T04:53:41;22.30;99.90
40638;DHT22;26336;44.696;10.622;2022-09-06T04:56:46;22.20;99.90
40638;DHT22;26336;44.696;10.622;2022-09-06T04:59:49;22.20;99.90
40638;DHT22;26336;44.696;10.622;2022-09-06T05:02:54;22.20;99.50
40638;DHT22;26336;44.696;10.622;2022-09-06T05:06:09;22.10;99.20
40638;DHT22;26336;44.696;10.622;2022-09-06T05:09:13;22.10;99.10
40638;DHT22;26336;44.696;10.622;2022-09-06T05:12:18;22.10;99.10
40638;DHT22;26336;44.696;10.622;2022-09-06T05:15:22;22.00;99.20
40638;DHT22;26336;44.696;10.622;2022-09-06T05:18:27;22.00;99.30
40638;DHT22;26336;44.696;10.622;2022-09-06T05:21:31;21.90;99.80
40638;DHT22;26336;44.696;10.622;2022-09-06T05:24:34;21.90;99.90
40638;DHT22;26336;44.696;10.622;2022-09-06T05:27:38;22.00;99.90
40638;DHT22;26336;44.696;10.622;2022-09-06T05:30:43;21.90;99.90
40638;DHT22;26336;44.696;10.622;2022-09-06T05:33:47;21.90;99.90
40638;DHT22;26336;44.696;10.622;2022-09-06T05:36:51;21.90;99.90
40638;DHT22;26336;44.696;10.622;2022-09-06T05:39:55;21.90;99.90
40638;DHT22;26336;44.696;10.622;2022-09-06T05:43:02;22.00;99.90
40638;DHT22;26336;44.696;10.622;2022-09-06T05:46:06;22.00;99.90
40638;DHT22;26336;44.696;10.622;2022-09-06T05:49:11;22.00;99.90
40638;DHT22;26336;44.696;10.622;2022-09-06T05:52:16;22.00;99.90
40638;DHT22;26336;44.696;10.622;2022-09-06T05:55:21;22.00;99.90
40638;DHT22;26336;44.696;10.622;2022-09-06T05:58:25;22.00;99.90
40638;DHT22;26336;44.696;10.622;2022-09-06T06:01:29;22.00;99.90
40638;DHT22;26336;44.696;10.622;2022-09-06T06:04:33;22.10;99.90
40638;DHT22;26336;44.696;10.622;2022-09-06T06:07:37;22.00;99.90
40638;DHT22;26336;44.696;10.622;2022-09-06T06:10:41;22.10;99.90
40638;DHT22;26336;44.696;10.622;2022-09-06T06:13:45;22.10;99.90
40638;DHT22;26336;44.696;10.622;2022-09-06T06:16:49;22.10;99.90
40638;DHT22;26336;44.696;10.622;2022-09-06T06:19:54;22.20;99.90
40638;DHT22;26336;44.696;10.622;2022-09-06T06:22:58;22.20;99.90
40638;DHT22;26336;44.696;10.622;2022-09-06T06:26:03;22.20;99.90
40638;DHT22;26336;44.696;10.622;2022-09-06T06:29:07;22.30;99.90
40638;DHT22;26336;44.696;10.622;2022-09-06T06:32:12;22.30;99.90
40638;DHT22;26336;44.696;10.622;2022-09-06T06:35:16;22.30;99.90
40638;DHT22;26336;44.696;10.622;2022-09-06T06:38:20;22.40;99.90
40638;DHT22;26336;44.696;10.622;2022-09-06T06:41:26;22.50;99.90
40638;DHT22;26336;44.696;10.622;2022-09-06T06:44:30;22.50;99.90
40638;DHT22;26336;44.696;10.622;2022-09-06T06:47:34;22.50;99.90
40638;DHT22;26336;44.696;10.622;2022-09-06T06:50:38;22.60;99.90
40638;DHT22;26336;44.696;10.622;2022-09-06T06:53:44;22.60;99.90
40638;DHT22;26336;44.696;10.622;2022-09-06T06:56:50;22.60;99.90
40638;DHT22;26336;44.696;10.622;2022-09-06T06:59:54;22.60;99.90
40638;DHT22;26336;44.696;10.622;2022-09-06T07:02:58;22.70;99.90
40638;DHT22;26336;44.696;10.622;2022-09-06T07:06:03;22.80;99.90
40638;DHT22;26336;44.696;10.622;2022-09-06T07:09:07;22.80;99.90
40638;DHT22;26336;44.696;10.622;2022-09-06T07:12:15;22.90;99.90
40638;DHT22;26336;44.696;10.622;2022-09-06T07:15:19;22.90;99.80
40638;DHT22;26336;44.696;10.622;2022-09-06T07:18:23;23.00;99.90
40638;DHT22;26336;44.696;10.622;2022-09-06T07:21:27;23.00;99.70
40638;DHT22;26336;44.696;10.622;2022-09-06T07:24:31;23.10;99.40
40638;DHT22;26336;44.696;10.622;2022-09-06T07:27:36;23.10;99.00
40638;DHT22;26336;44.696;10.622;2022-09-06T07:30:41;23.20;98.40
40638;DHT22;26336;44.696;10.622;2022-09-06T07:33:45;23.20;98.20
40638;DHT22;26336;44.696;10.622;2022-09-06T07:36:51;23.30;98.10
40638;DHT22;26336;44.696;10.622;2022-09-06T07:39:56;23.40;98.10
40638;DHT22;26336;44.696;10.622;2022-09-06T07:43:00;23.40;97.80
40638;DHT22;26336;44.696;10.622;2022-09-06T07:46:07;23.40;97.80
40638;DHT22;26336;44.696;10.622;2022-09-06T07:49:11;23.50;97.90
40638;DHT22;26336;44.696;10.622;2022-09-06T07:52:15;23.60;97.90
40638;DHT22;26336;44.696;10.622;2022-09-06T07:55:19;23.60;98.00
40638;DHT22;26336;44.696;10.622;2022-09-06T07:58:23;23.70;97.70
40638;DHT22;26336;44.696;10.622;2022-09-06T08:01:32;23.70;97.60
40638;DHT22;26336;44.696;10.622;2022-09-06T08:04:37;23.70;97.70
40638;DHT22;26336;44.696;10.622;2022-09-06T08:07:41;23.80;97.60
40638;DHT22;26336;44.696;10.622;2022-09-06T08:10:49;23.90;97.70
40638;DHT22;26336;44.696;10.622;2022-09-06T08:13:54;23.90;97.60
40638;DHT22;26336;44.696;10.622;2022-09-06T08:16:59;24.00;97.50
40638;DHT22;26336;44.696;10.622;2022-09-06T08:20:03;24.00;97.70
40638;DHT22;26336;44.696;10.622;2022-09-06T08:23:10;24.10;97.70
40638;DHT22;26336;44.696;10.622;2022-09-06T08:26:19;24.20;97.50
40638;DHT22;26336;44.696;10.622;2022-09-06T08:29:28;24.30;97.50
40638;DHT22;26336;44.696;10.622;2022-09-06T08:32:32;24.30;97.20
40638;DHT22;26336;44.696;10.622;2022-09-06T08:35:39;24.40;96.90
40638;DHT22;26336;44.696;10.622;2022-09-06T08:38:43;24.50;96.80
40638;DHT22;26336;44.696;10.622;2022-09-06T08:44:55;24.70;96.80
40638;DHT22;26336;44.696;10.622;2022-09-06T08:48:03;24.80;97.00
40638;DHT22;26336;44.696;10.622;2022-09-06T08:51:37;24.90;96.60
40638;DHT22;26336;44.696;10.622;2022-09-06T09:04:55;25.20;96.20
40638;DHT22;26336;44.696;10.622;2022-09-06T09:11:26;25.40;96.30
40638;DHT22;26336;44.696;10.622;2022-09-06T09:14:35;25.50;96.10
40638;DHT22;26336;44.696;10.622;2022-09-06T09:17:40;25.50;95.90
40638;DHT22;26336;44.696;10.622;2022-09-06T09:20:45;25.60;95.90
40638;DHT22;26336;44.696;10.622;2022-09-06T09:23:57;25.70;95.80
40638;DHT22;26336;44.696;10.622;2022-09-06T09:27:06;25.80;95.90
40638;DHT22;26336;44.696;10.622;2022-09-06T09:30:11;25.90;96.10
40638;DHT22;26336;44.696;10.622;2022-09-06T09:33:37;26.00;95.30
40638;DHT22;26336;44.696;10.622;2022-09-06T09:36:44;26.00;95.20
40638;DHT22;26336;44.696;10.622;2022-09-06T09:39:50;26.00;94.80
40638;DHT22;26336;44.696;10.622;2022-09-06T09:46:44;26.10;95.40
40638;DHT22;26336;44.696;10.622;2022-09-06T09:49:57;26.10;95.50
40638;DHT22;26336;44.696;10.622;2022-09-06T09:53:09;26.20;95.40
40638;DHT22;26336;44.696;10.622;2022-09-06T09:56:14;26.20;95.70
40638;DHT22;26336;44.696;10.622;2022-09-06T09:59:37;26.30;94.90
40638;DHT22;26336;44.696;10.622;2022-09-06T10:02:43;26.30;94.80
40638;DHT22;26336;44.696;10.622;2022-09-06T10:05:59;26.40;94.20
40638;DHT22;26336;44.696;10.622;2022-09-06T10:09:32;26.40;94.90
40638;DHT22;26336;44.696;10.622;2022-09-06T10:12:39;26.50;94.70
40638;DHT22;26336;44.696;10.622;2022-09-06T10:15:44;26.40;95.00
40638;DHT22;26336;44.696;10.622;2022-09-06T10:18:48;26.40;95.00
40638;DHT22;26336;44.696;10.622;2022-09-06T10:22:01;26.50;94.60
40638;DHT22;26336;44.696;10.622;2022-09-06T10:28:29;26.50;94.60
40638;DHT22;26336;44.696;10.622;2022-09-06T10:35:19;26.60;94.50
40638;DHT22;26336;44.696;10.622;2022-09-06T10:38:57;26.60;94.20
40638;DHT22;26336;44.696;10.622;2022-09-06T10:48:46;26.70;94.50
40638;DHT22;26336;44.696;10.622;2022-09-06T10:51:58;26.70;94.30
40638;DHT22;26336;44.696;10.622;2022-09-06T10:55:05;26.80;94.30
40638;DHT22;26336;44.696;10.622;2022-09-06T10:58:12;26.80;94.40
40638;DHT22;26336;44.696;10.622;2022-09-06T11:01:52;26.90;94.20
40638;DHT22;26336;44.696;10.622;2022-09-06T11:05:07;27.00;94.80
40638;DHT22;26336;44.696;10.622;2022-09-06T11:11:55;27.10;94.70
40638;DHT22;26336;44.696;10.622;2022-09-06T11:15:02;27.20;94.60
40638;DHT22;26336;44.696;10.622;2022-09-06T11:18:25;27.20;95.10
40638;DHT22;26336;44.696;10.622;2022-09-06T11:28:38;27.40;94.80
40638;DHT22;26336;44.696;10.622;2022-09-06T11:31:55;27.50;94.80
40638;DHT22;26336;44.696;10.622;2022-09-06T11:35:06;27.50;94.60
40638;DHT22;26336;44.696;10.622;2022-09-06T11:38:18;27.60;94.50
40638;DHT22;26336;44.696;10.622;2022-09-06T11:41:29;27.60;94.30
40638;DHT22;26336;44.696;10.622;2022-09-06T11:51:37;27.80;93.60
40638;DHT22;26336;44.696;10.622;2022-09-06T11:54:45;27.70;93.50
40638;DHT22;26336;44.696;10.622;2022-09-06T11:57:55;27.70;93.50
40638;DHT22;26336;44.696;10.622;2022-09-06T12:04:16;27.60;94.20
40638;DHT22;26336;44.696;10.622;2022-09-06T12:07:20;27.70;94.10
40638;DHT22;26336;44.696;10.622;2022-09-06T12:13:55;27.80;94.30
40638;DHT22;26336;44.696;10.622;2022-09-06T12:20:05;27.90;93.90
40638;DHT22;26336;44.696;10.622;2022-09-06T12:26:45;28.10;94.00
40638;DHT22;26336;44.696;10.622;2022-09-06T12:30:02;28.10;94.20
40638;DHT22;26336;44.696;10.622;2022-09-06T12:33:16;28.30;93.80
40638;DHT22;26336;44.696;10.622;2022-09-06T12:36:30;28.50;93.10
40638;DHT22;26336;44.696;10.622;2022-09-06T12:39:34;28.50;92.80
40638;DHT22;26336;44.696;10.622;2022-09-06T12:42:38;28.50;93.20
40638;DHT22;26336;44.696;10.622;2022-09-06T12:45:49;28.60;92.80
40638;DHT22;26336;44.696;10.622;2022-09-06T12:52:09;28.40;93.10
40638;DHT22;26336;44.696;10.622;2022-09-06T12:58:29;28.50;92.50
40638;DHT22;26336;44.696;10.622;2022-09-06T13:01:34;28.60;92.30
40638;DHT22;26336;44.696;10.622;2022-09-06T13:04:52;28.60;92.40
40638;DHT22;26336;44.696;10.622;2022-09-06T13:07:59;28.50;91.50
40638;DHT22;26336;44.696;10.622;2022-09-06T13:11:08;28.60;91.20
40638;DHT22;26336;44.696;10.622;2022-09-06T13:14:22;28.60;91.60
40638;DHT22;26336;44.696;10.622;2022-09-06T13:17:29;28.70;92.10
40638;DHT22;26336;44.696;10.622;2022-09-06T13:20:33;28.70;91.50
40638;DHT22;26336;44.696;10.622;2022-09-06T13:23:45;28.70;91.70
40638;DHT22;26336;44.696;10.622;2022-09-06T13:26:51;28.70;91.70
40638;DHT22;26336;44.696;10.622;2022-09-06T13:30:06;28.80;91.80
40638;DHT22;26336;44.696;10.622;2022-09-06T13:33:32;28.80;90.80
40638;DHT22;26336;44.696;10.622;2022-09-06T13:36:37;28.90;91.00
40638;DHT22;26336;44.696;10.622;2022-09-06T13:39:42;28.90;90.50
40638;DHT22;26336;44.696;10.622;2022-09-06T13:42:47;28.90;90.10
40638;DHT22;26336;44.696;10.622;2022-09-06T13:46:11;28.90;89.10
40638;DHT22;26336;44.696;10.622;2022-09-06T13:49:16;28.90;90.20
40638;DHT22;26336;44.696;10.622;2022-09-06T13:52:20;28.80;90.50
40638;DHT22;26336;44.696;10.622;2022-09-06T13:55:30;28.90;90.30
40638;DHT22;26336;44.696;10.622;2022-09-06T13:58:35;28.80;89.60
40638;DHT22;26336;44.696;10.622;2022-09-06T14:01:41;28.80;90.10
40638;DHT22;26336;44.696;10.622;2022-09-06T14:04:49;28.80;91.00
40638;DHT22;26336;44.696;10.622;2022-09-06T14:07:53;28.90;90.60
40638;DHT22;26336;44.696;10.622;2022-09-06T14:10:57;28.90;90.50
40638;DHT22;26336;44.696;10.622;2022-09-06T14:14:01;29.00;90.70
40638;DHT22;26336;44.696;10.622;2022-09-06T14:17:05;28.90;90.60
40638;DHT22;26336;44.696;10.622;2022-09-06T14:20:09;28.80;90.90
40638;DHT22;26336;44.696;10.622;2022-09-06T14:23:14;28.70;90.10
40638;DHT22;26336;44.696;10.622;2022-09-06T14:26:21;28.70;90.50
40638;DHT22;26336;44.696;10.622;2022-09-06T14:29:28;28.70;90.50
40638;DHT22;26336;44.696;10.622;2022-09-06T14:32:32;28.70;90.50
40638;DHT22;26336;44.696;10.622;2022-09-06T14:35:38;28.80;90.20
40638;DHT22;26336;44.696;10.622;2022-09-06T14:38:44;28.80;90.00
40638;DHT22;26336;44.696;10.622;2022-09-06T14:41:51;28.90;90.10
40638;DHT22;26336;44.696;10.622;2022-09-06T14:44:55;28.80;90.00
40638;DHT22;26336;44.696;10.622;2022-09-06T14:47:59;28.90;89.90
40638;DHT22;26336;44.696;10.622;2022-09-06T14:51:18;28.80;90.30
40638;DHT22;26336;44.696;10.622;2022-09-06T14:54:27;28.90;89.90
40638;DHT22;26336;44.696;10.622;2022-09-06T14:57:31;29.00;90.00
40638;DHT22;26336;44.696;10.622;2022-09-06T15:00:35;29.00;90.10
40638;DHT22;26336;44.696;10.622;2022-09-06T15:03:42;29.00;90.20
40638;DHT22;26336;44.696;10.622;2022-09-06T15:06:47;29.00;90.00
40638;DHT22;26336;44.696;10.622;2022-09-06T15:09:52;28.90;89.40
40638;DHT22;26336;44.696;10.622;2022-09-06T15:12:56;28.90;89.50
40638;DHT22;26336;44.696;10.622;2022-09-06T15:16:01;29.00;89.40
40638;DHT22;26336;44.696;10.622;2022-09-06T15:19:04;29.00;89.60
40638;DHT22;26336;44.696;10.622;2022-09-06T15:22:09;28.90;88.60
40638;DHT22;26336;44.696;10.622;2022-09-06T15:25:13;29.00;88.60
40638;DHT22;26336;44.696;10.622;2022-09-06T15:28:18;28.90;88.80
40638;DHT22;26336;44.696;10.622;2022-09-06T15:31:23;28.70;90.00
40638;DHT22;26336;44.696;10.622;2022-09-06T15:34:27;28.60;89.00
40638;DHT22;26336;44.696;10.622;2022-09-06T15:37:30;28.60;89.40
40638;DHT22;26336;44.696;10.622;2022-09-06T15:40:34;28.50;88.70
40638;DHT22;26336;44.696;10.622;2022-09-06T15:43:41;28.60;89.30
40638;DHT22;26336;44.696;10.622;2022-09-06T15:46:52;28.50;88.90
40638;DHT22;26336;44.696;10.622;2022-09-06T15:49:57;28.40;89.40
40638;DHT22;26336;44.696;10.622;2022-09-06T15:53:01;28.30;89.60
40638;DHT22;26336;44.696;10.622;2022-09-06T15:56:06;28.40;89.60
40638;DHT22;26336;44.696;10.622;2022-09-06T15:59:11;28.40;89.50
40638;DHT22;26336;44.696;10.622;2022-09-06T16:02:15;28.40;90.00
40638;DHT22;26336;44.696;10.622;2022-09-06T16:05:19;28.40;90.10
40638;DHT22;26336;44.696;10.622;2022-09-06T16:08:28;28.50;90.30
40638;DHT22;26336;44.696;10.622;2022-09-06T16:11:33;28.50;90.00
40638;DHT22;26336;44.696;10.622;2022-09-06T16:14:39;28.50;90.40
40638;DHT22;26336;44.696;10.622;2022-09-06T16:17:43;28.50;90.80
40638;DHT22;26336;44.696;10.622;2022-09-06T16:20:47;28.50;90.20
40638;DHT22;26336;44.696;10.622;2022-09-06T16:23:59;28.50;90.40
40638;DHT22;26336;44.696;10.622;2022-09-06T16:27:06;28.40;90.50
40638;DHT22;26336;44.696;10.622;2022-09-06T16:30:11;28.40;90.60
40638;DHT22;26336;44.696;10.622;2022-09-06T16:33:15;28.50;90.40
40638;DHT22;26336;44.696;10.622;2022-09-06T16:36:20;28.50;90.50
40638;DHT22;26336;44.696;10.622;2022-09-06T16:39:24;28.40;90.80
40638;DHT22;26336;44.696;10.622;2022-09-06T16:42:28;28.40;91.00
40638;DHT22;26336;44.696;10.622;2022-09-06T16:45:32;28.30;90.90
40638;DHT22;26336;44.696;10.622;2022-09-06T16:48:36;28.30;90.80
40638;DHT22;26336;44.696;10.622;2022-09-06T16:51:43;28.30;91.00
40638;DHT22;26336;44.696;10.622;2022-09-06T16:54:47;28.30;90.90
40638;DHT22;26336;44.696;10.622;2022-09-06T16:57:51;28.20;90.70
40638;DHT22;26336;44.696;10.622;2022-09-06T17:00:55;28.30;90.80
40638;DHT22;26336;44.696;10.622;2022-09-06T17:04:00;28.30;90.80
40638;DHT22;26336;44.696;10.622;2022-09-06T17:07:06;28.30;90.90
40638;DHT22;26336;44.696;10.622;2022-09-06T17:10:10;28.20;91.00
40638;DHT22;26336;44.696;10.622;2022-09-06T17:13:15;28.10;91.10
40638;DHT22;26336;44.696;10.622;2022-09-06T17:16:20;28.00;91.10
40638;DHT22;26336;44.696;10.622;2022-09-06T17:19:42;27.90;91.30
40638;DHT22;26336;44.696;10.622;2022-09-06T17:22:50;27.80;91.40
40638;DHT22;26336;44.696;10.622;2022-09-06T17:25:54;27.80;91.40
40638;DHT22;26336;44.696;10.622;2022-09-06T17:29:00;27.70;91.50
40638;DHT22;26336;44.696;10.622;2022-09-06T17:32:05;27.70;91.40
40638;DHT22;26336;44.696;10.622;2022-09-06T17:35:13;27.70;91.70
40638;DHT22;26336;44.696;10.622;2022-09-06T17:38:17;27.70;91.70
40638;DHT22;26336;44.696;10.622;2022-09-06T17:41:26;27.70;91.70
40638;DHT22;26336;44.696;10.622;2022-09-06T17:44:31;27.70;91.60
40638;DHT22;26336;44.696;10.622;2022-09-06T17:47:35;27.60;91.70
40638;DHT22;26336;44.696;10.622;2022-09-06T17:50:40;27.60;91.70
40638;DHT22;26336;44.696;10.622;2022-09-06T17:53:44;27.50;91.80
40638;DHT22;26336;44.696;10.622;2022-09-06T17:56:49;27.40;92.00
40638;DHT22;26336;44.696;10.622;2022-09-06T17:59:53;27.40;92.10
40638;DHT22;26336;44.696;10.622;2022-09-06T18:02:57;27.40;91.00
40638;DHT22;26336;44.696;10.622;2022-09-06T18:06:07;27.40;91.10
40638;DHT22;26336;44.696;10.622;2022-09-06T18:09:13;27.50;91.30
40638;DHT22;26336;44.696;10.622;2022-09-06T18:12:18;27.50;91.10
40638;DHT22;26336;44.696;10.622;2022-09-06T18:15:22;27.40;90.90
40638;DHT22;26336;44.696;10.622;2022-09-06T18:18:26;27.50;91.00
40638;DHT22;26336;44.696;10.622;2022-09-06T18:21:36;27.40;91.10
40638;DHT22;26336;44.696;10.622;2022-09-06T18:24:40;27.40;91.20
40638;DHT22;26336;44.696;10.622;2022-09-06T18:27:44;27.40;91.40
40638;DHT22;26336;44.696;10.622;2022-09-06T18:30:49;27.40;91.60
40638;DHT22;26336;44.696;10.622;2022-09-06T18:33:55;27.30;91.70
40638;DHT22;26336;44.696;10.622;2022-09-06T18:37:01;27.30;91.60
40638;DHT22;26336;44.696;10.622;2022-09-06T18:40:05;27.30;91.70
40638;DHT22;26336;44.696;10.622;2022-09-06T18:43:09;27.30;91.80
40638;DHT22;26336;44.696;10.622;2022-09-06T18:46:14;27.20;91.80
40638;DHT22;26336;44.696;10.622;2022-09-06T18:49:19;27.20;91.80
40638;DHT22;26336;44.696;10.622;2022-09-06T18:52:22;27.20;92.00
40638;DHT22;26336;44.696;10.622;2022-09-06T18:55:26;27.10;92.00
40638;DHT22;26336;44.696;10.622;2022-09-06T18:58:31;27.10;92.00
40638;DHT22;26336;44.696;10.622;2022-09-06T19:01:36;27.10;92.10
40638;DHT22;26336;44.696;10.622;2022-09-06T19:04:40;27.00;92.20
40638;DHT22;26336;44.696;10.622;2022-09-06T19:07:44;27.10;92.30
40638;DHT22;26336;44.696;10.622;2022-09-06T19:11:00;27.10;92.70
40638;DHT22;26336;44.696;10.622;2022-09-06T19:14:06;27.10;92.80
40638;DHT22;26336;44.696;10.622;2022-09-06T19:17:10;27.00;93.00
40638;DHT22;26336;44.696;10.622;2022-09-06T19:20:14;27.00;93.20
40638;DHT22;26336;44.696;10.622;2022-09-06T19:23:19;26.90;93.60
40638;DHT22;26336;44.696;10.622;2022-09-06T19:26:28;26.90;93.70
40638;DHT22;26336;44.696;10.622;2022-09-06T19:29:34;26.90;93.70
40638;DHT22;26336;44.696;10.622;2022-09-06T19:32:38;26.80;93.80
40638;DHT22;26336;44.696;10.622;2022-09-06T19:35:42;26.80;93.90
40638;DHT22;26336;44.696;10.622;2022-09-06T19:38:47;26.80;93.80
40638;DHT22;26336;44.696;10.622;2022-09-06T19:41:51;26.80;93.90
40638;DHT22;26336;44.696;10.622;2022-09-06T19:44:55;26.70;94.00
40638;DHT22;26336;44.696;10.622;2022-09-06T19:47:59;26.70;94.10
40638;DHT22;26336;44.696;10.622;2022-09-06T19:51:05;26.70;94.30
40638;DHT22;26336;44.696;10.622;2022-09-06T19:54:11;26.70;94.50
40638;DHT22;26336;44.696;10.622;2022-09-06T19:57:15;26.60;94.40
40638;DHT22;26336;44.696;10.622;2022-09-06T20:00:19;26.70;94.50
40638;DHT22;26336;44.696;10.622;2022-09-06T20:03:23;26.70;94.60
40638;DHT22;26336;44.696;10.622;2022-09-06T20:06:28;26.60;94.70
40638;DHT22;26336;44.696;10.622;2022-09-06T20:09:32;26.70;94.80
40638;DHT22;26336;44.696;10.622;2022-09-06T20:12:41;26.70;95.00
40638;DHT22;26336;44.696;10.622;2022-09-06T20:15:49;26.70;95.00
40638;DHT22;26336;44.696;10.622;2022-09-06T20:18:53;26.60;94.90
40638;DHT22;26336;44.696;10.622;2022-09-06T20:21:57;26.60;94.90
40638;DHT22;26336;44.696;10.622;2022-09-06T20:25:06;26.60;94.90
40638;DHT22;26336;44.696;10.622;2022-09-06T20:28:11;26.60;95.10
40638;DHT22;26336;44.696;10.622;2022-09-06T20:31:17;26.50;95.20
40638;DHT22;26336;44.696;10.622;2022-09-06T20:34:21;26.50;95.30
40638;DHT22;26336;44.696;10.622;2022-09-06T20:37:25;26.50;95.30
40638;DHT22;26336;44.696;10.622;2022-09-06T20:40:29;26.40;95.50
40638;DHT22;26336;44.696;10.622;2022-09-06T20:43:34;26.40;95.60
40638;DHT22;26336;44.696;10.622;2022-09-06T20:46:42;26.30;95.80
40638;DHT22;26336;44.696;10.622;2022-09-06T20:49:46;26.30;96.00
40638;DHT22;26336;44.696;10.622;2022-09-06T20:52:50;26.30;96.10